Time;durP1;ratioP1;P1;durP2;ratioP2;P2;SDS_P1;SDS_P2;PMS_P1;PMS_P2;Temp;Humidity;BMP_temperature;BMP_pressure;BME280_temperature;BME280_humidity;BME280_pressure;Samples;Min_cycle;Max_cycle;Signal;HPM_P1;HPM_P2
2023/08/20 00:04:04;;;;;;;;;;;21.70;99.90;;;20.61;100.00;100410.91;9758747;29;98509;-92
2023/08/20 00:09:08;;;;;;;;;;;21.60;99.90;;;20.57;100.00;100410.56;9752845;29;97407;-91
2023/08/20 00:14:16;;;;;;;;;;;21.60;99.90;;;20.57;100.00;100409.72;9777770;29;98137;-90
2023/08/20 00:19:20;;;;;;;;;;;21.60;99.90;;;20.55;100.00;100393.75;9744068;29;97724;-91
2023/08/20 00:24:23;;;;;;;;;;;21.60;99.90;;;20.54;100.00;100397.50;9750455;29;97332;-92
2023/08/20 00:29:27;;;;;;;;;;;21.60;99.90;;;20.52;100.00;100399.63;9748881;29;97464;-92
2023/08/20 00:34:31;;;;;;;;;;;21.60;99.90;;;20.46;100.00;100397.03;9749330;29;97719;-91
2023/08/20 00:39:35;;;;;;;;;;;21.50;99.90;;;20.34;100.00;100391.53;9731413;29;97459;-91
2023/08/20 00:44:41;;;;;;;;;;;21.40;99.90;;;20.29;100.00;100391.38;9730034;29;96797;-91
2023/08/20 00:49:45;;;;;;;;;;;21.40;99.90;;;20.28;100.00;100397.84;9731830;29;97497;-91
2023/08/20 00:54:49;;;;;;;;;;;21.30;99.90;;;20.27;100.00;100406.97;9759212;29;96771;-91
2023/08/20 00:59:54;;;;;;;;;;;21.30;99.90;;;20.15;100.00;100393.44;9744881;29;96991;-91
2023/08/20 01:04:59;;;;;;;;;;;21.30;99.90;;;20.15;100.00;100408.75;9740360;29;97447;-91
2023/08/20 01:10:30;;;;;;;;;;;21.20;99.90;;;20.11;100.00;100416.50;9752072;29;97441;-91
2023/08/20 01:15:34;;;;;;;;;;;21.10;99.90;;;20.09;100.00;100410.53;9756854;29;97348;-92
2023/08/20 01:20:41;;;;;;;;;;;21.10;99.90;;;20.03;100.00;100401.44;9751889;29;98078;-92
2023/08/20 01:26:25;;;;;;;;;;;21.10;99.90;;;19.96;100.00;100408.75;9731348;29;96704;-92
2023/08/20 01:31:29;;;;;;;;;;;21.00;99.90;;;19.87;100.00;100404.72;9738555;29;98751;-90
2023/08/20 01:36:33;;;;;;;;;;;21.00;99.90;;;19.77;100.00;100399.03;9763192;29;98488;-92
2023/08/20 01:41:36;;;;;;;;;;;20.90;99.90;;;19.72;100.00;100407.78;9738426;29;97518;-92
2023/08/20 01:46:40;;;;;;;;;;;20.80;99.90;;;19.74;100.00;100410.28;9762389;29;97043;-92
2023/08/20 01:51:43;;;;;;;;;;;20.80;99.90;;;19.70;100.00;100403.66;9754112;29;98570;-92
2023/08/20 01:56:47;;;;;;;;;;;20.80;99.90;;;19.71;100.00;100410.69;9736053;29;97385;-92
2023/08/20 02:01:50;;;;;;;;;;;20.80;99.90;;;19.66;100.00;100407.84;9733286;29;97205;-91
2023/08/20 02:06:53;;;;;;;;;;;20.70;99.90;;;19.62;100.00;100407.47;9751529;29;98531;-91
2023/08/20 02:11:57;;;;;;;;;;;20.70;99.90;;;19.56;100.00;100407.50;9792616;29;97268;-90
2023/08/20 02:17:02;;;;;;;;;;;20.70;99.90;;;19.48;100.00;100404.03;9773120;29;96796;-92
2023/08/20 02:22:05;;;;;;;;;;;20.60;99.90;;;19.52;100.00;100404.44;9745897;29;96919;-92
2023/08/20 02:27:09;;;;;;;;;;;20.60;99.90;;;19.55;100.00;100405.84;9741558;29;96799;-92
2023/08/20 02:32:12;;;;;;;;;;;20.60;99.90;;;19.60;100.00;100411.44;9742618;29;98161;-92
2023/08/20 02:37:16;;;;;;;;;;;20.70;99.90;;;19.59;100.00;100399.81;9763144;29;96773;-93
2023/08/20 02:42:19;;;;;;;;;;;20.70;99.90;;;19.63;100.00;100400.22;9756035;29;98714;-92
2023/08/20 02:47:23;;;;;;;;;;;20.70;99.90;;;19.62;100.00;100401.25;9749536;29;96964;-92
2023/08/20 02:52:27;;;;;;;;;;;20.70;99.90;;;19.57;100.00;100401.88;9741540;29;96841;-92
2023/08/20 02:57:31;;;;;;;;;;;20.70;99.90;;;19.48;100.00;100401.34;9763597;29;96983;-92
2023/08/20 03:02:34;;;;;;;;;;;20.60;99.90;;;19.44;100.00;100404.72;9759453;29;98268;-93
2023/08/20 03:07:38;;;;;;;;;;;20.50;99.90;;;19.42;100.00;100404.09;9768414;29;97364;-92
2023/08/20 03:12:42;;;;;;;;;;;20.50;99.90;;;19.40;100.00;100400.81;9749216;29;97408;-93
2023/08/20 03:17:47;;;;;;;;;;;20.50;99.90;;;19.35;100.00;100406.03;9751536;29;98785;-92
2023/08/20 03:22:51;;;;;;;;;;;20.50;99.90;;;19.35;100.00;100406.84;9754932;29;96743;-92
2023/08/20 03:27:55;;;;;;;;;;;20.50;99.90;;;19.33;100.00;100417.03;9750224;29;96687;-93
2023/08/20 03:32:59;;;;;;;;;;;20.50;99.90;;;19.28;100.00;100413.34;9749096;29;96793;-93
2023/08/20 03:38:02;;;;;;;;;;;20.40;99.90;;;19.21;100.00;100421.47;9753975;29;96926;-93
2023/08/20 03:43:06;;;;;;;;;;;20.30;99.90;;;19.17;100.00;100425.66;9749635;29;96820;-93
2023/08/20 03:48:09;;;;;;;;;;;20.30;99.90;;;19.15;100.00;100425.06;9753461;29;96833;-93
2023/08/20 03:53:13;;;;;;;;;;;20.30;99.90;;;19.11;100.00;100435.41;9762820;29;97256;-92
2023/08/20 03:58:17;;;;;;;;;;;20.30;99.90;;;19.06;100.00;100437.13;9763410;29;96594;-92
2023/08/20 04:03:20;;;;;;;;;;;20.20;99.90;;;19.05;100.00;100439.00;9754164;29;96724;-92
2023/08/20 04:08:24;;;;;;;;;;;20.10;99.90;;;19.11;100.00;100437.28;9759120;29;96959;-92
2023/08/20 04:13:27;;;;;;;;;;;20.20;99.90;;;19.11;100.00;100434.59;9736756;29;96934;-92
2023/08/20 04:18:31;;;;;;;;;;;20.20;99.90;;;19.15;100.00;100430.44;9742540;29;96915;-92
2023/08/20 04:23:34;;;;;;;;;;;20.20;99.90;;;19.16;100.00;100415.91;9744482;29;97058;-92
2023/08/20 04:28:38;;;;;;;;;;;20.30;99.90;;;19.24;100.00;100429.09;9747918;29;98644;-93
2023/08/20 04:33:41;;;;;;;;;;;20.40;99.90;;;19.36;100.00;100432.75;9758476;29;96754;-91
2023/08/20 04:38:45;;;;;;;;;;;20.50;99.90;;;19.46;100.00;100438.47;9753371;29;96820;-89
2023/08/20 04:43:48;;;;;;;;;;;20.60;99.90;;;19.55;100.00;100443.56;9745199;29;97740;-90
2023/08/20 04:48:52;;;;;;;;;;;20.70;99.90;;;19.65;100.00;100452.84;9755979;29;99878;-90
2023/08/20 04:53:56;;;;;;;;;;;20.80;99.90;;;19.72;100.00;100458.19;9747336;29;96967;-89
2023/08/20 04:58:59;;;;;;;;;;;20.90;99.90;;;19.84;100.00;100455.59;9759768;29;97176;-90
2023/08/20 05:04:03;;;;;;;;;;;21.00;99.90;;;19.98;100.00;100465.22;9755261;29;97808;-89
2023/08/20 05:09:06;;;;;;;;;;;21.10;99.90;;;20.08;100.00;100461.97;9739906;29;97442;-89
2023/08/20 05:14:10;;;;;;;;;;;21.20;99.90;;;20.18;100.00;100463.13;9739486;29;97200;-89
2023/08/20 05:19:14;;;;;;;;;;;21.20;99.90;;;20.27;100.00;100455.53;9757511;29;96790;-89
2023/08/20 05:24:17;;;;;;;;;;;21.40;99.90;;;20.32;100.00;100450.28;9766644;29;96696;-89
2023/08/20 05:29:21;;;;;;;;;;;21.50;99.90;;;20.51;100.00;100457.38;9767742;29;96633;-89
2023/08/20 05:34:24;;;;;;;;;;;21.60;99.90;;;20.68;100.00;100467.53;9776697;29;96948;-89
2023/08/20 05:39:30;;;;;;;;;;;21.80;99.90;;;20.84;100.00;100466.91;9752320;29;96833;-89
2023/08/20 05:44:33;;;;;;;;;;;22.00;99.90;;;20.97;100.00;100450.50;9757597;29;98804;-90
2023/08/20 05:49:40;;;;;;;;;;;22.10;99.90;;;21.14;100.00;100466.91;9749931;29;96858;-92
2023/08/20 05:54:43;;;;;;;;;;;22.20;99.90;;;21.25;100.00;100466.09;9734022;29;97580;-91
2023/08/20 05:59:47;;;;;;;;;;;22.40;99.90;;;21.40;100.00;100467.56;9750455;29;97320;-91
2023/08/20 06:04:51;;;;;;;;;;;22.50;99.90;;;21.54;100.00;100480.66;9730260;29;97101;-91
2023/08/20 06:09:54;;;;;;;;;;;22.70;99.90;;;21.75;100.00;100483.84;9730015;29;98193;-91
2023/08/20 06:14:58;;;;;;;;;;;22.80;99.90;;;21.97;100.00;100486.78;9713936;29;97393;-91
2023/08/20 06:20:05;;;;;;;;;;;23.10;99.90;;;22.18;100.00;100478.09;9747990;29;98008;-91
2023/08/20 06:25:08;;;;;;;;;;;23.30;99.90;;;22.42;100.00;100478.88;9710985;29;96703;-90
2023/08/20 06:30:12;;;;;;;;;;;23.50;99.90;;;22.69;100.00;100473.75;9744400;29;96752;-90
2023/08/20 06:35:16;;;;;;;;;;;23.80;99.90;;;22.88;100.00;100469.81;9740499;29;98890;-90
2023/08/20 06:40:19;;;;;;;;;;;24.10;99.90;;;23.11;100.00;100466.16;9738246;29;99463;-90
2023/08/20 06:45:23;;;;;;;;;;;24.30;99.90;;;23.42;100.00;100472.09;9738530;29;97249;-90
2023/08/20 06:50:27;;;;;;;;;;;24.50;99.90;;;23.60;100.00;100462.91;9762515;29;96724;-90
2023/08/20 06:55:30;;;;;;;;;;;24.80;99.90;;;23.81;100.00;100466.75;9753938;29;96636;-91
2023/08/20 07:00:34;;;;;;;;;;;25.00;99.90;;;23.97;98.31;100463.22;9733731;29;97409;-91
2023/08/20 07:05:37;;;;;;;;;;;25.20;99.90;;;24.20;97.57;100468.44;9760881;29;96889;-91
2023/08/20 07:10:41;;;;;;;;;;;25.40;99.90;;;24.44;95.70;100474.47;9763553;29;98079;-90
2023/08/20 07:15:44;;;;;;;;;;;25.60;99.90;;;24.65;95.30;100478.25;9746571;29;98634;-91
2023/08/20 07:20:50;;;;;;;;;;;25.80;99.90;;;24.86;94.87;100467.59;9771630;29;96897;-90
2023/08/20 07:26:06;;;;;;;;;;;26.00;99.90;;;25.18;94.94;100475.84;9740714;29;96692;-91
2023/08/20 07:31:10;;;;;;;;;;;26.30;99.90;;;25.39;92.41;100471.41;9769079;29;98940;-89
2023/08/20 07:36:14;;;;;;;;;;;26.50;99.90;;;25.60;90.18;100478.66;9740245;29;98213;-90
2023/08/20 07:41:19;;;;;;;;;;;26.70;99.90;;;25.81;89.60;100480.47;9745963;29;98657;-91
2023/08/20 07:46:23;;;;;;;;;;;26.90;99.90;;;26.05;88.37;100478.19;9742162;29;98075;-91
2023/08/20 07:51:26;;;;;;;;;;;27.20;99.90;;;26.30;86.08;100473.94;9694699;29;98607;-91
2023/08/20 07:56:30;;;;;;;;;;;27.40;99.90;;;26.54;84.45;100474.34;9739368;29;96671;-92
2023/08/20 08:01:33;;;;;;;;;;;27.70;99.90;;;26.82;84.32;100475.81;9746015;29;98249;-93
2023/08/20 08:06:38;;;;;;;;;;;27.90;99.90;;;27.01;81.38;100462.50;9743881;29;98363;-93
2023/08/20 08:11:41;;;;;;;;;;;28.20;99.90;;;27.23;81.40;100467.72;9755480;29;96735;-93
2023/08/20 08:16:46;;;;;;;;;;;28.30;99.90;;;27.47;80.64;100477.84;9747822;29;96758;-94
2023/08/20 08:21:50;;;;;;;;;;;28.60;99.90;;;27.76;82.03;100471.81;9752440;29;98725;-93
2023/08/20 08:26:53;;;;;;;;;;;28.90;99.90;;;27.93;78.08;100463.34;9728275;29;97745;-93
2023/08/20 08:31:57;;;;;;;;;;;29.10;99.90;;;28.16;77.77;100467.38;9735806;29;98062;-92
2023/08/20 08:37:01;;;;;;;;;;;29.30;99.90;;;28.35;77.54;100464.88;9754312;29;97844;-92
2023/08/20 08:42:07;;;;;;;;;;;29.50;99.90;;;28.50;75.20;100462.09;9756072;29;98491;-92
2023/08/20 08:47:11;;;;;;;;;;;29.60;99.90;;;28.73;75.40;100464.16;9727069;29;97547;-92
2023/08/20 08:52:15;;;;;;;;;;;29.80;99.90;;;28.86;72.00;100470.91;9796408;29;96849;-92
2023/08/20 08:57:19;;;;;;;;;;;30.00;99.90;;;28.94;71.31;100466.78;9775907;29;96896;-91
2023/08/20 09:02:23;;;;;;;;;;;30.10;99.90;;;29.08;69.76;100472.44;9753763;29;98587;-90
2023/08/20 09:07:26;;;;;;;;;;;30.20;99.90;;;29.25;69.85;100473.69;9738483;29;97440;-89
2023/08/20 09:12:33;;;;;;;;;;;30.40;99.90;;;29.37;68.14;100470.56;9759310;29;96979;-91
2023/08/20 09:17:37;;;;;;;;;;;30.50;99.80;;;29.53;68.07;100468.56;9742483;29;97163;-90
2023/08/20 09:22:49;;;;;;;;;;;30.60;99.70;;;29.70;63.14;100473.63;9747630;29;97728;-90
2023/08/20 09:27:54;;;;;;;;;;;30.80;98.70;;;29.83;65.14;100470.19;9734530;29;97275;-90
2023/08/20 09:33:15;;;;;;;;;;;31.00;98.00;;;30.00;64.00;100467.81;9730288;29;97127;-90
2023/08/20 09:38:23;;;;;;;;;;;31.10;97.70;;;30.14;61.02;100457.00;9732813;29;96786;-90
2023/08/20 09:43:30;;;;;;;;;;;31.30;97.00;;;30.36;58.46;100457.28;9726970;29;97286;-91
2023/08/20 09:48:35;;;;;;;;;;;31.50;93.90;;;30.42;54.24;100468.19;9748149;29;97797;-92
2023/08/20 09:53:48;;;;;;;;;;;31.60;94.10;;;30.50;53.65;100464.78;9760711;29;97723;-92
2023/08/20 09:58:53;;;;;;;;;;;31.60;93.50;;;30.57;53.17;100465.25;9734705;29;96821;-92
2023/08/20 10:03:58;;;;;;;;;;;31.70;91.90;;;30.60;49.81;100461.94;9736269;29;97386;-91
2023/08/20 10:09:02;;;;;;;;;;;31.80;90.20;;;30.74;50.89;100457.34;9741102;29;98417;-91
2023/08/20 10:14:06;;;;;;;;;;;31.90;89.80;;;30.82;48.57;100450.38;9746596;29;96903;-93
2023/08/20 10:19:10;;;;;;;;;;;32.00;85.10;;;30.89;46.84;100450.84;9754813;29;97369;-91
2023/08/20 10:24:21;;;;;;;;;;;32.10;83.80;;;31.02;46.77;100436.38;9734259;29;96915;-90
2023/08/20 10:29:43;;;;;;;;;;;32.20;80.40;;;31.21;47.04;100436.34;9765095;29;96742;-91
2023/08/20 10:34:52;;;;;;;;;;;32.30;83.90;;;31.44;49.51;100445.59;9751079;29;98750;-91
2023/08/20 10:39:56;;;;;;;;;;;32.50;84.10;;;31.56;44.41;100445.13;9734441;29;98636;-91
2023/08/20 10:45:03;;;;;;;;;;;32.70;74.90;;;31.55;47.72;100427.84;9760420;29;97798;-92
2023/08/20 10:50:08;;;;;;;;;;;32.70;80.60;;;31.70;47.58;100424.78;9731321;29;96762;-91
2023/08/20 10:55:13;;;;;;;;;;;32.80;81.90;;;31.74;45.27;100424.19;9758544;29;97067;-92
2023/08/20 11:00:16;;;;;;;;;;;32.90;79.20;;;31.80;45.92;100426.56;9741843;29;97635;-91
2023/08/20 11:05:23;;;;;;;;;;;32.90;78.60;;;31.89;45.87;100421.97;9753682;29;96850;-93
2023/08/20 11:10:27;;;;;;;;;;;33.00;78.20;;;31.93;46.16;100424.94;9757137;29;96976;-92
2023/08/20 11:15:31;;;;;;;;;;;33.10;77.30;;;32.00;44.72;100425.34;9753374;29;96715;-92
2023/08/20 11:20:35;;;;;;;;;;;33.10;75.50;;;31.96;43.78;100425.13;9770092;29;98497;-90
2023/08/20 11:25:43;;;;;;;;;;;33.10;74.80;;;32.06;44.24;100418.63;9752753;29;96735;-91
2023/08/20 11:30:46;;;;;;;;;;;33.20;74.60;;;32.28;42.97;100419.84;9744822;29;96853;-91
2023/08/20 11:35:51;;;;;;;;;;;33.40;70.70;;;32.32;42.89;100415.34;9756214;29;97601;-89
2023/08/20 11:40:54;;;;;;;;;;;33.50;73.10;;;32.43;43.61;100412.09;9738611;29;97475;-89
2023/08/20 11:45:58;;;;;;;;;;;33.60;71.80;;;32.43;42.78;100405.78;9754610;29;98050;-91
2023/08/20 11:51:04;;;;;;;;;;;33.60;71.70;;;32.50;42.06;100409.72;9744616;29;97221;-89
2023/08/20 11:56:12;;;;;;;;;;;33.70;71.50;;;32.63;42.43;100402.59;9740478;29;97104;-89
2023/08/20 12:01:18;;;;;;;;;;;33.70;69.30;;;32.72;41.51;100392.44;9762020;29;96794;-89
2023/08/20 12:06:24;;;;;;;;;;;33.80;67.90;;;32.85;42.56;100393.53;9758500;29;98309;-90
2023/08/20 12:11:28;;;;;;;;;;;33.80;69.60;;;33.00;42.11;100397.88;9753691;29;96781;-90
2023/08/20 12:16:31;;;;;;;;;;;33.90;68.40;;;32.96;41.42;100391.38;9753048;29;98769;-90
2023/08/20 12:21:35;;;;;;;;;;;33.90;67.40;;;33.01;44.66;100396.75;9731095;29;96717;-90
2023/08/20 12:26:39;;;;;;;;;;;33.90;71.60;;;32.98;43.35;100391.88;9744236;29;97682;-91
2023/08/20 12:31:43;;;;;;;;;;;33.90;69.80;;;33.03;43.30;100381.53;9730882;29;98685;-90
2023/08/20 12:36:48;;;;;;;;;;;33.90;69.30;;;33.21;41.23;100387.97;9744030;29;98700;-91
2023/08/20 12:41:52;;;;;;;;;;;34.10;66.80;;;33.28;41.14;100382.81;9747940;29;98697;-90
2023/08/20 12:46:55;;;;;;;;;;;34.20;67.20;;;33.46;41.35;100375.50;9739995;29;96735;-92
2023/08/20 12:51:59;;;;;;;;;;;34.30;67.10;;;33.65;40.05;100374.44;9761183;29;96678;-91
2023/08/20 12:57:03;;;;;;;;;;;34.60;65.80;;;33.79;38.65;100375.97;9729144;29;96613;-91
2023/08/20 13:02:06;;;;;;;;;;;34.60;64.00;;;33.74;40.03;100380.81;9736527;29;96667;-90
2023/08/20 13:07:13;;;;;;;;;;;34.60;65.00;;;33.72;39.09;100375.63;9741810;29;96765;-90
2023/08/20 13:12:18;;;;;;;;;;;34.60;64.40;;;33.70;39.11;100363.28;9733555;29;96891;-89
2023/08/20 13:17:22;;;;;;;;;;;34.60;65.20;;;33.71;39.58;100357.47;9733411;29;96666;-90
2023/08/20 13:22:25;;;;;;;;;;;34.70;64.40;;;33.74;38.05;100354.06;9742592;29;96809;-90
2023/08/20 13:27:29;;;;;;;;;;;34.90;64.00;;;33.88;38.58;100361.41;9716241;30;96534;-89
2023/08/20 13:32:32;;;;;;;;;;;35.10;62.20;;;33.94;39.64;100357.41;9723598;29;97009;-89
2023/08/20 13:37:36;;;;;;;;;;;35.10;64.20;;;33.97;38.17;100354.00;9770606;29;96717;-90
2023/08/20 13:42:39;;;;;;;;;;;35.00;61.60;;;34.15;38.64;100350.16;9783944;29;96870;-90
2023/08/20 13:47:44;;;;;;;;;;;35.10;62.80;;;34.21;38.16;100353.56;9743581;29;96608;-89
2023/08/20 13:52:50;;;;;;;;;;;35.10;62.40;;;34.17;36.91;100338.78;9764431;29;96653;-90
2023/08/20 13:57:54;;;;;;;;;;;35.00;60.80;;;34.20;38.06;100347.25;9759043;29;96733;-89
2023/08/20 14:02:58;;;;;;;;;;;35.00;62.20;;;34.23;39.07;100341.06;9739104;29;96735;-90
2023/08/20 14:08:03;;;;;;;;;;;35.00;63.10;;;34.28;39.09;100332.63;9748163;29;96613;-90
2023/08/20 14:13:06;;;;;;;;;;;35.20;62.80;;;34.35;37.90;100327.44;9752021;29;96695;-90
2023/08/20 14:18:10;;;;;;;;;;;35.60;60.60;;;34.51;39.28;100341.63;9747485;29;97410;-90
2023/08/20 14:23:13;;;;;;;;;;;35.90;61.90;;;34.66;36.75;100326.50;9736356;29;96544;-91
2023/08/20 14:28:17;;;;;;;;;;;36.40;59.30;;;34.90;34.63;100319.66;9731697;29;96592;-91
2023/08/20 14:33:21;;;;;;;;;;;36.70;56.40;;;35.27;35.20;100320.91;9726071;29;96670;-90
2023/08/20 14:38:25;;;;;;;;;;;37.10;56.90;;;35.69;35.29;100318.28;9741212;29;96821;-90
2023/08/20 14:43:30;;;;;;;;;;;37.50;57.30;;;35.99;35.01;100316.34;9743449;29;98610;-91
2023/08/20 14:48:35;;;;;;;;;;;37.80;56.70;;;36.33;35.00;100324.38;9759176;29;97411;-91
2023/08/20 14:53:39;;;;;;;;;;;38.10;56.70;;;36.39;34.96;100309.22;9754965;29;96716;-90
2023/08/20 14:58:43;;;;;;;;;;;38.10;56.70;;;36.52;35.73;100323.91;9753179;29;99032;-90
2023/08/20 15:03:47;;;;;;;;;;;38.00;57.30;;;36.59;35.37;100318.66;9725381;29;97116;-91
2023/08/20 15:08:50;;;;;;;;;;;38.10;57.30;;;36.70;35.75;100319.84;9746183;29;96536;-90
2023/08/20 15:13:54;;;;;;;;;;;38.10;57.90;;;36.86;35.42;100320.03;9758532;29;96899;-90
2023/08/20 15:18:58;;;;;;;;;;;38.20;57.00;;;36.69;35.02;100322.97;9765721;29;96657;-90
2023/08/20 15:24:01;;;;;;;;;;;38.00;56.50;;;36.65;35.02;100316.50;9739891;29;98586;-90
2023/08/20 15:29:04;;;;;;;;;;;37.90;56.90;;;36.72;34.12;100311.22;9746704;29;98569;-92
2023/08/20 15:34:08;;;;;;;;;;;37.90;55.70;;;36.63;35.74;100316.81;9740769;29;97679;-90
2023/08/20 15:39:12;;;;;;;;;;;37.80;57.50;;;36.53;35.28;100310.94;9759266;29;96786;-89
2023/08/20 15:44:16;;;;;;;;;;;37.70;57.10;;;36.45;35.52;100313.41;9731321;29;96823;-91
2023/08/20 15:49:20;;;;;;;;;;;37.50;57.00;;;36.09;35.97;100311.22;9746061;29;96878;-90
2023/08/20 15:54:25;;;;;;;;;;;37.20;57.60;;;35.82;36.19;100312.53;9766255;29;97559;-90
2023/08/20 15:59:29;;;;;;;;;;;36.90;57.60;;;35.63;37.43;100314.91;9737001;29;98330;-90
2023/08/20 16:04:35;;;;;;;;;;;36.60;59.20;;;35.37;38.27;100312.22;9757597;29;98472;-89
2023/08/20 16:09:41;;;;;;;;;;;36.30;59.70;;;35.29;39.02;100304.78;9757762;29;96738;-90
2023/08/20 16:14:46;;;;;;;;;;;36.20;60.30;;;35.19;38.42;100316.19;9744376;29;96706;-88
2023/08/20 16:19:50;;;;;;;;;;;36.10;59.90;;;35.00;39.53;100311.06;9759143;29;97133;-89
2023/08/20 16:24:54;;;;;;;;;;;35.80;61.20;;;34.82;39.39;100318.53;9742031;29;98642;-89
2023/08/20 16:29:57;;;;;;;;;;;35.60;61.30;;;34.60;40.00;100320.34;9733856;29;98888;-89
2023/08/20 16:35:01;;;;;;;;;;;35.40;61.70;;;34.33;40.71;100324.22;9735890;29;98266;-89
2023/08/20 16:40:07;;;;;;;;;;;35.20;62.30;;;34.06;41.83;100322.56;9753309;29;97442;-88
2023/08/20 16:45:12;;;;;;;;;;;34.90;63.10;;;33.75;42.61;100325.38;9742653;29;98486;-88
2023/08/20 16:50:15;;;;;;;;;;;34.60;64.20;;;33.40;43.66;100321.69;9734969;29;98136;-88
2023/08/20 16:55:19;;;;;;;;;;;34.30;65.10;;;32.83;46.18;100329.75;9730665;29;98544;-88
2023/08/20 17:00:23;;;;;;;;;;;33.80;65.80;;;32.17;48.74;100329.31;9741733;29;98323;-89
2023/08/20 17:05:27;;;;;;;;;;;33.20;68.90;;;31.62;50.50;100325.81;9759160;29;96712;-88
2023/08/20 17:10:31;;;;;;;;;;;32.50;70.90;;;31.00;52.15;100334.31;9758895;29;97561;-88
2023/08/20 17:15:35;;;;;;;;;;;31.90;72.20;;;30.49;53.53;100334.28;9737557;29;98553;-88
2023/08/20 17:20:39;;;;;;;;;;;31.40;73.40;;;30.08;54.59;100338.38;9744716;29;97464;-88
2023/08/20 17:25:42;;;;;;;;;;;30.90;74.10;;;29.71;54.17;100346.53;9752001;29;98797;-89
2023/08/20 17:30:46;;;;;;;;;;;30.50;73.80;;;29.35;53.58;100335.94;9751847;29;96817;-89
2023/08/20 17:35:49;;;;;;;;;;;30.20;73.40;;;29.06;54.66;100328.53;9758520;29;98351;-88
2023/08/20 17:40:53;;;;;;;;;;;29.90;74.30;;;28.76;56.02;100328.78;9739540;29;96701;-88
2023/08/20 17:45:56;;;;;;;;;;;29.60;75.40;;;28.53;57.09;100335.75;9745546;29;98489;-88
2023/08/20 17:51:01;;;;;;;;;;;29.30;76.10;;;28.31;57.32;100338.06;9737586;29;97075;-88
2023/08/20 17:56:05;;;;;;;;;;;29.10;76.50;;;28.11;58.05;100339.81;9735820;29;96720;-88
2023/08/20 18:01:09;;;;;;;;;;;28.90;77.10;;;27.89;59.37;100332.00;9738265;29;97198;-88
2023/08/20 18:06:12;;;;;;;;;;;28.70;78.00;;;27.75;59.92;100347.31;9735730;29;96717;-88
2023/08/20 18:11:16;;;;;;;;;;;28.50;78.70;;;27.62;59.67;100340.50;9744282;29;98751;-88
2023/08/20 18:16:23;;;;;;;;;;;28.40;78.60;;;27.53;60.00;100355.84;9736997;29;98288;-87
2023/08/20 18:21:27;;;;;;;;;;;28.30;79.00;;;27.39;60.67;100361.03;9732895;29;98461;-88
2023/08/20 18:26:30;;;;;;;;;;;28.20;79.40;;;27.27;60.64;100362.41;9749924;29;99878;-88
2023/08/20 18:31:34;;;;;;;;;;;28.00;79.50;;;27.23;60.57;100375.81;9742969;29;98676;-88
2023/08/20 18:36:38;;;;;;;;;;;28.00;79.50;;;27.20;60.47;100379.88;9733511;29;97742;-88
2023/08/20 18:41:42;;;;;;;;;;;27.90;79.70;;;27.14;61.11;100386.44;9739164;29;97600;-87
2023/08/20 18:46:45;;;;;;;;;;;27.90;80.00;;;27.05;61.32;100379.88;9750778;29;97436;-88
2023/08/20 18:51:49;;;;;;;;;;;27.80;80.30;;;26.92;61.41;100381.19;9749356;29;96779;-89
2023/08/20 18:56:54;;;;;;;;;;;27.80;80.10;;;26.88;62.47;100396.47;9754874;29;98410;-90
2023/08/20 19:01:57;;;;;;;;;;;27.70;80.70;;;26.76;63.41;100398.66;9742370;29;97410;-87
2023/08/20 19:07:02;;;;;;;;;;;27.60;80.30;;;26.61;65.17;100393.16;9752532;29;98230;-87
2023/08/20 19:12:06;;;;;;;;;;;27.50;82.50;;;26.48;65.47;100402.66;9753824;29;97471;-88
2023/08/20 19:17:09;;;;;;;;;;;27.30;82.30;;;26.31;65.77;100415.66;9707474;29;98934;-89
2023/08/20 19:22:15;;;;;;;;;;;27.10;83.90;;;26.18;66.88;100408.78;9746513;29;98066;-88
2023/08/20 19:27:19;;;;;;;;;;;27.00;84.40;;;26.09;66.95;100415.84;9738441;29;98259;-88
2023/08/20 19:32:23;;;;;;;;;;;26.90;84.90;;;26.00;67.39;100420.97;9752574;29;97546;-88
2023/08/20 19:37:27;;;;;;;;;;;26.80;85.40;;;25.92;66.65;100423.38;9733956;29;97527;-89
2023/08/20 19:42:31;;;;;;;;;;;26.70;85.40;;;25.85;67.00;100427.16;9742403;29;97234;-89
2023/08/20 19:47:34;;;;;;;;;;;26.60;85.50;;;25.80;66.77;100432.56;9728394;29;98588;-88
2023/08/20 19:52:38;;;;;;;;;;;26.60;85.40;;;25.81;65.96;100433.38;9748651;29;97141;-88
2023/08/20 19:57:43;;;;;;;;;;;26.50;85.10;;;25.81;65.68;100438.81;9739796;29;96716;-90
2023/08/20 20:02:47;;;;;;;;;;;26.60;84.90;;;25.82;65.80;100437.75;9753957;29;96912;-87
2023/08/20 20:07:51;;;;;;;;;;;26.60;85.00;;;25.84;65.42;100447.28;9746422;29;98625;-88
2023/08/20 20:12:55;;;;;;;;;;;26.60;84.60;;;25.84;64.63;100450.00;9745775;29;97530;-88
2023/08/20 20:17:59;;;;;;;;;;;26.60;84.20;;;25.86;64.31;100453.28;9746193;29;99028;-89
2023/08/20 20:23:02;;;;;;;;;;;26.70;84.10;;;25.91;64.81;100454.38;9748599;29;98583;-89
2023/08/20 20:28:06;;;;;;;;;;;26.70;84.10;;;25.78;64.84;100439.34;9753112;29;99481;-89
2023/08/20 20:33:09;;;;;;;;;;;26.70;84.40;;;25.80;64.83;100453.53;9732959;29;97024;-89
2023/08/20 20:38:13;;;;;;;;;;;26.60;84.60;;;25.73;65.31;100451.03;9758810;29;97693;-90
2023/08/20 20:43:21;;;;;;;;;;;26.50;84.80;;;25.62;65.44;100452.00;9752973;29;96932;-90
2023/08/20 20:48:25;;;;;;;;;;;26.50;84.80;;;25.60;67.95;100459.59;9734933;29;97862;-89
2023/08/20 20:53:36;;;;;;;;;;;26.40;85.00;;;25.41;69.57;100458.38;9736922;29;98166;-89
2023/08/20 20:58:40;;;;;;;;;;;26.30;86.00;;;25.21;70.59;100448.97;9740790;29;96929;-90
2023/08/20 21:03:43;;;;;;;;;;;26.20;86.20;;;25.03;71.57;100455.56;9745183;29;97651;-90
2023/08/20 21:08:47;;;;;;;;;;;26.00;87.10;;;24.86;72.42;100451.31;9748105;29;97081;-89
2023/08/20 21:13:52;;;;;;;;;;;25.80;88.20;;;24.72;73.66;100459.88;9756936;29;97069;-89
2023/08/20 21:18:57;;;;;;;;;;;25.70;89.00;;;24.59;74.27;100464.84;9747867;29;96712;-90
2023/08/20 21:24:01;;;;;;;;;;;25.50;89.60;;;24.50;74.32;100461.78;9723372;29;96647;-91
2023/08/20 21:29:04;;;;;;;;;;;25.40;89.30;;;24.35;75.54;100458.84;9767445;29;96788;-89
2023/08/20 21:34:11;;;;;;;;;;;25.30;90.50;;;24.23;76.35;100465.22;9767824;29;97506;-90
2023/08/20 21:39:15;;;;;;;;;;;25.20;90.80;;;24.18;76.79;100477.91;9748958;29;96624;-90
2023/08/20 21:44:19;;;;;;;;;;;25.10;91.20;;;23.95;78.07;100460.75;9738352;29;97939;-90
2023/08/20 21:49:23;;;;;;;;;;;24.90;92.00;;;23.86;78.54;100478.53;9754594;29;99397;-89
2023/08/20 21:54:27;;;;;;;;;;;24.70;92.40;;;23.77;78.67;100467.28;9745531;29;96831;-89
2023/08/20 21:59:31;;;;;;;;;;;24.70;92.10;;;23.83;78.42;100487.16;9737078;29;96925;-90
2023/08/20 22:04:38;;;;;;;;;;;24.60;92.60;;;23.81;78.45;100483.91;9740473;29;97623;-89
2023/08/20 22:09:41;;;;;;;;;;;24.60;92.80;;;23.79;78.89;100483.31;9752014;29;98460;-91
2023/08/20 22:14:46;;;;;;;;;;;24.60;93.00;;;23.79;78.96;100477.06;9743300;29;97435;-89
2023/08/20 22:19:49;;;;;;;;;;;24.60;93.10;;;23.83;78.84;100483.63;9739175;29;96943;-88
2023/08/20 22:24:53;;;;;;;;;;;24.60;92.70;;;23.80;78.82;100475.97;9742131;29;99910;-88
2023/08/20 22:29:56;;;;;;;;;;;24.70;92.70;;;23.80;78.99;100484.94;9737334;29;98865;-89
2023/08/20 22:35:00;;;;;;;;;;;24.70;92.60;;;23.80;79.27;100489.53;9747465;29;98731;-89
2023/08/20 22:40:07;;;;;;;;;;;24.70;92.70;;;23.78;79.62;100495.22;9738770;29;98434;-88
2023/08/20 22:45:11;;;;;;;;;;;24.70;92.70;;;23.72;79.76;100488.09;9738609;29;97354;-89
2023/08/20 22:50:14;;;;;;;;;;;24.70;92.90;;;23.62;80.65;100488.72;9746283;29;97600;-89
2023/08/20 22:55:18;;;;;;;;;;;24.60;92.80;;;23.49;81.36;100486.31;9744222;29;98968;-88
2023/08/20 23:00:21;;;;;;;;;;;24.50;93.40;;;23.36;82.64;100478.50;9746121;29;98641;-88